Time;durP1;ratioP1;P1;durP2;ratioP2;P2;SDS_P1;SDS_P2;PMS_P1;PMS_P2;Temp;Humidity;BMP_temperature;BMP_pressure;BME280_temperature;BME280_humidity;BME280_pressure;Samples;Min_cycle;Max_cycle;Signal;HPM_P1;HPM_P2
2023/08/02 00:01:29;;;;;;;1.98;0.40;;;;;;;16.87;66.59;96757.94;10374755;28;20117;-67
2023/08/02 00:06:50;;;;;;;2.45;0.75;;;;;;;16.83;66.58;96763.47;10374637;28;20046;-66
2023/08/02 00:12:11;;;;;;;1.90;0.57;;;;;;;16.76;66.27;96767.50;10375579;28;20116;-67
2023/08/02 00:17:31;;;;;;;1.42;0.40;;;;;;;16.69;66.49;96753.91;10374581;28;20141;-67
2023/08/02 00:22:53;;;;;;;2.47;0.63;;;;;;;16.64;66.30;96761.50;10374061;28;20053;-67
2023/08/02 00:28:15;;;;;;;2.70;0.40;;;;;;;16.53;66.49;96766.13;10373915;28;20102;-67
2023/08/02 00:33:36;;;;;;;2.05;0.43;;;;;;;16.42;66.41;96772.16;10375611;28;20045;-67
2023/08/02 00:38:56;;;;;;;1.08;0.30;;;;;;;16.26;66.82;96778.72;10373718;28;20081;-67
2023/08/02 00:44:17;;;;;;;2.90;0.50;;;;;;;16.13;66.97;96788.19;10360018;28;20073;-67
2023/08/02 00:49:38;;;;;;;1.85;0.40;;;;;;;16.08;67.14;96799.97;10359894;28;20046;-67
2023/08/02 00:54:59;;;;;;;1.15;0.35;;;;;;;16.04;67.50;96792.13;10359745;28;20540;-67
2023/08/02 01:00:20;;;;;;;3.10;0.50;;;;;;;16.01;67.89;96787.78;10374094;28;20121;-67
2023/08/02 01:05:46;;;;;;;2.60;0.50;;;;;;;15.98;68.13;96786.31;10373794;28;20057;-67
2023/08/02 01:11:14;;;;;;;1.70;0.40;;;;;;;16.07;68.38;96788.00;10359474;28;20537;-67
2023/08/02 01:16:36;;;;;;;2.53;0.45;;;;;;;16.09;68.21;96790.88;10372837;28;20556;-67
2023/08/02 01:21:56;;;;;;;1.80;0.40;;;;;;;16.06;68.59;96789.38;10359258;28;20077;-66
2023/08/02 01:27:19;;;;;;;3.00;0.60;;;;;;;16.10;68.54;96797.94;10372555;28;20046;-67
2023/08/02 01:32:39;;;;;;;1.13;0.40;;;;;;;16.08;68.56;96792.25;10372597;28;20065;-67
2023/08/02 01:38:01;;;;;;;2.95;0.45;;;;;;;16.06;68.73;96789.38;10377114;28;20073;-69
2023/08/02 01:43:24;;;;;;;2.90;0.40;;;;;;;16.03;68.90;96782.25;10381420;28;20062;-68
2023/08/02 01:48:44;;;;;;;3.13;0.43;;;;;;;16.00;68.62;96792.00;10380054;28;20096;-68
2023/08/02 01:54:05;;;;;;;2.70;0.40;;;;;;;15.89;68.83;96793.78;10380756;28;20066;-67
2023/08/02 01:59:26;;;;;;;1.58;0.50;;;;;;;15.78;69.02;96791.28;10379644;28;20495;-67
2023/08/02 02:04:47;;;;;;;1.35;0.52;;;;;;;15.61;69.31;96776.69;10365658;28;20488;-67
2023/08/02 02:10:08;;;;;;;1.63;0.40;;;;;;;15.52;69.88;96794.66;10365803;28;20172;-67
2023/08/02 02:15:28;;;;;;;5.28;0.47;;;;;;;15.46;70.24;96791.66;10379072;28;20046;-67
2023/08/02 02:20:49;;;;;;;3.05;0.68;;;;;;;15.46;70.05;96800.09;10365236;28;20491;-66
2023/08/02 02:26:11;;;;;;;1.67;0.43;;;;;;;15.42;70.73;96788.69;10378619;28;20077;-67
2023/08/02 02:31:34;;;;;;;3.65;0.50;;;;;;;15.39;70.87;96795.63;10378470;28;20114;-67
2023/08/02 02:36:55;;;;;;;2.38;0.55;;;;;;;15.33;70.93;96795.41;10379875;28;20109;-68
2023/08/02 02:42:17;;;;;;;1.75;0.50;;;;;;;15.22;71.46;96799.97;10378726;28;20052;-67
2023/08/02 02:47:37;;;;;;;2.45;0.63;;;;;;;15.10;72.27;96789.03;10378664;28;20073;-67
2023/08/02 02:52:58;;;;;;;4.65;0.55;;;;;;;15.05;72.45;96793.06;10364125;28;20042;-67
2023/08/02 02:58:19;;;;;;;2.30;0.57;;;;;;;15.03;72.60;96804.25;10370036;28;20046;-68
2023/08/02 03:03:40;;;;;;;1.88;0.52;;;;;;;15.07;72.92;96795.25;10379696;28;20069;-67
2023/08/02 03:09:01;;;;;;;3.25;0.55;;;;;;;15.09;73.25;96795.31;10377717;28;20077;-67
2023/08/02 03:14:22;;;;;;;2.03;0.50;;;;;;;15.06;73.27;96791.72;10363123;28;20061;-67
2023/08/02 03:19:43;;;;;;;4.30;0.60;;;;;;;14.95;73.33;96789.91;10376485;28;20396;-67
2023/08/02 03:25:04;;;;;;;2.67;0.50;;;;;;;14.84;73.85;96785.31;10376266;28;20381;-66
2023/08/02 03:30:25;;;;;;;2.35;0.52;;;;;;;14.81;74.16;96792.22;10362623;28;20170;-67
2023/08/02 03:35:46;;;;;;;4.95;0.60;;;;;;;14.83;74.30;96786.66;10376954;28;20093;-67
2023/08/02 03:41:06;;;;;;;2.28;0.52;;;;;;;14.91;74.74;96795.38;10376813;28;20073;-67
2023/08/02 03:46:27;;;;;;;1.77;0.50;;;;;;;15.06;74.39;96797.34;10375381;28;20052;-67
2023/08/02 03:51:48;;;;;;;2.00;0.60;;;;;;;15.29;73.89;96784.75;10375475;28;20042;-67
2023/08/02 03:57:09;;;;;;;2.42;0.60;;;;;;;15.46;73.36;96792.38;10375105;28;20447;-67
2023/08/02 04:02:29;;;;;;;1.65;0.50;;;;;;;15.60;72.96;96768.88;10374426;28;20077;-67
2023/08/02 04:07:50;;;;;;;3.10;0.90;;;;;;;15.68;73.01;96781.16;10360828;28;20046;-68
2023/08/02 04:13:11;;;;;;;3.00;0.80;;;;;;;15.87;72.58;96790.19;10375502;28;20511;-67
2023/08/02 04:18:32;;;;;;;3.30;0.82;;;;;;;16.01;72.01;96799.78;10374698;28;20107;-67
2023/08/02 04:23:52;;;;;;;1.83;0.52;;;;;;;16.11;71.34;96790.91;10374144;28;20116;-67
2023/08/02 04:29:13;;;;;;;2.13;0.90;;;;;;;16.15;71.03;96787.53;10374071;28;20062;-67
2023/08/02 04:34:34;;;;;;;1.95;0.43;;;;;;;16.18;70.98;96786.91;10373576;28;20141;-67
2023/08/02 04:39:55;;;;;;;2.55;0.52;;;;;;;16.29;70.83;96802.03;10374575;28;20054;-67
2023/08/02 04:45:16;;;;;;;1.90;0.57;;;;;;;16.44;70.37;96795.44;10373402;28;20078;-67
2023/08/02 04:50:37;;;;;;;5.45;0.93;;;;;;;16.53;69.95;96790.78;10374306;28;20054;-67
2023/08/02 04:55:58;;;;;;;5.03;0.70;;;;;;;16.69;69.43;96782.81;10373198;28;20072;-67
2023/08/02 05:01:19;;;;;;;3.15;0.50;;;;;;;16.87;69.23;96786.13;10372873;28;20072;-67
2023/08/02 05:06:40;;;;;;;2.33;0.60;;;;;;;17.31;68.61;96780.25;10372937;28;20467;-67
2023/08/02 05:12:00;;;;;;;3.05;0.50;;;;;;;18.08;66.31;96792.03;10380636;28;20069;-67
2023/08/02 05:17:21;;;;;;;3.00;0.70;;;;;;;18.20;64.91;96769.69;10386372;28;20139;-67
2023/08/02 05:22:42;;;;;;;3.17;0.70;;;;;;;17.99;64.63;96785.47;10387204;28;20072;-67
2023/08/02 05:28:03;;;;;;;3.72;0.68;;;;;;;18.53;63.28;96780.31;10387151;28;20104;-67
2023/08/02 05:33:24;;;;;;;3.63;0.65;;;;;;;19.28;61.66;96771.88;10387052;28;20057;-67
2023/08/02 05:38:44;;;;;;;2.72;0.70;;;;;;;19.64;59.40;96764.06;10386954;28;20117;-67
2023/08/02 05:44:06;;;;;;;3.30;0.75;;;;;;;19.84;59.20;96762.94;10385893;28;20091;-68
2023/08/02 05:49:26;;;;;;;2.35;0.77;;;;;;;20.03;58.17;96764.66;10385469;28;20121;-67
2023/08/02 05:54:47;;;;;;;3.50;0.80;;;;;;;21.08;55.78;96773.13;10385654;28;20164;-67
2023/08/02 06:00:09;;;;;;;2.78;0.80;;;;;;;21.65;53.17;96776.56;10385253;28;20153;-66
2023/08/02 06:05:30;;;;;;;3.45;0.75;;;;;;;21.94;52.13;96771.81;10384863;28;20054;-66
2023/08/02 06:10:50;;;;;;;3.40;0.80;;;;;;;22.64;51.58;96764.44;10386207;28;20555;-65
2023/08/02 06:16:11;;;;;;;4.13;0.77;;;;;;;22.46;48.37;96762.22;10385182;28;20073;-66
2023/08/02 06:21:34;;;;;;;2.75;0.75;;;;;;;22.44;49.04;96765.78;10383141;28;20476;-66
2023/08/02 06:26:54;;;;;;;3.40;0.82;;;;;;;23.56;47.13;96782.53;10378376;28;20065;-66
2023/08/02 06:32:15;;;;;;;2.70;0.80;;;;;;;23.58;46.18;96783.25;10364779;28;20118;-65
2023/08/02 06:37:36;;;;;;;3.25;0.70;;;;;;;23.67;45.41;96790.41;10379089;28;20126;-66
2023/08/02 06:42:57;;;;;;;3.85;0.65;;;;;;;23.71;45.11;96815.34;10378925;28;20072;-66
2023/08/02 06:48:19;;;;;;;3.50;0.77;;;;;;;22.84;45.71;96798.69;10377505;28;20062;-66
2023/08/02 06:53:39;;;;;;;2.17;0.73;;;;;;;22.91;46.13;96810.81;10363915;28;20107;-65
2023/08/02 06:59:00;;;;;;;3.75;0.75;;;;;;;22.25;46.61;96806.88;10363811;28;20121;-66
2023/08/02 07:04:21;;;;;;;3.03;1.00;;;;;;;22.09;47.09;96801.78;10376937;28;20088;-66
2023/08/02 07:09:41;;;;;;;3.33;0.65;;;;;;;22.38;46.87;96784.91;10377682;28;20160;-65
2023/08/02 07:15:03;;;;;;;3.85;0.80;;;;;;;21.94;46.94;96789.59;10377709;28;20069;-65
2023/08/02 07:20:24;;;;;;;2.40;0.90;;;;;;;21.72;47.07;96778.03;10376387;28;20060;-66
2023/08/02 07:25:45;;;;;;;4.43;0.80;;;;;;;21.66;47.53;96758.81;10377065;28;20125;-65
2023/08/02 07:31:11;;;;;;;3.70;1.00;;;;;;;21.74;47.61;96763.84;10376330;28;20037;-66
2023/08/02 07:36:32;;;;;;;4.05;0.60;;;;;;;22.33;47.52;96769.97;10374958;28;20070;-65
2023/08/02 07:41:53;;;;;;;2.85;0.77;;;;;;;24.33;45.25;96762.63;10376734;28;20070;-66
2023/08/02 07:47:13;;;;;;;3.67;0.80;;;;;;;25.07;43.57;96751.66;10376545;28;20080;-66
2023/08/02 07:52:34;;;;;;;3.30;0.90;;;;;;;25.79;40.79;96772.66;10376164;28;20076;-66
2023/08/02 07:57:55;;;;;;;3.05;0.65;;;;;;;27.52;37.40;96742.09;10376162;28;20073;-68
2023/08/02 08:03:16;;;;;;;2.85;0.75;;;;;;;29.11;32.71;96742.13;10375693;28;20057;-68
2023/08/02 08:08:37;;;;;;;4.50;0.70;;;;;;;29.73;31.23;96724.91;10375769;28;20049;-69
2023/08/02 08:13:57;;;;;;;2.83;0.70;;;;;;;28.09;32.69;96737.63;10375741;28;20121;-69
2023/08/02 08:19:18;;;;;;;2.75;0.75;;;;;;;28.96;31.26;96720.91;10375326;28;20073;-69
2023/08/02 08:24:39;;;;;;;2.13;0.70;;;;;;;30.35;29.82;96719.03;10374383;28;20042;-69
2023/08/02 08:30:00;;;;;;;2.67;0.70;;;;;;;31.64;27.66;96707.31;10374894;28;20250;-69
2023/08/02 08:35:21;;;;;;;3.00;0.50;;;;;;;30.61;28.87;96702.50;10374959;28;20552;-69
2023/08/02 08:40:42;;;;;;;3.15;0.70;;;;;;;30.05;29.58;96711.19;10374572;28;20485;-68
2023/08/02 08:46:03;;;;;;;1.77;0.63;;;;;;;28.68;30.73;96707.81;10373172;28;20046;-69
2023/08/02 08:51:24;;;;;;;2.15;0.60;;;;;;;28.37;30.97;96690.47;10374365;28;20049;-69
2023/08/02 08:56:45;;;;;;;2.17;0.77;;;;;;;28.47;31.46;96704.63;10373292;28;20070;-69
2023/08/02 09:02:08;;;;;;;1.88;0.70;;;;;;;29.14;29.20;96717.63;10373117;28;20492;-68
2023/08/02 09:07:30;;;;;;;2.17;0.73;;;;;;;28.94;29.95;96692.22;10373801;28;20072;-69
2023/08/02 09:12:52;;;;;;;3.83;0.88;;;;;;;27.78;30.62;96682.94;10373127;28;20046;-69
2023/08/02 09:18:13;;;;;;;2.10;0.70;;;;;;;27.83;31.03;96675.69;10373633;28;20053;-68
2023/08/02 09:23:35;;;;;;;4.33;0.70;;;;;;;28.47;30.85;96665.19;10373650;28;20522;-69
2023/08/02 09:29:00;;;;;;;1.85;0.65;;;;;;;30.78;28.79;96681.09;10386373;28;20042;-69
2023/08/02 09:34:24;;;;;;;1.67;0.80;;;;;;;32.93;25.19;96692.78;10373766;28;20049;-69
2023/08/02 09:39:51;;;;;;;2.78;0.70;;;;;;;31.89;25.98;96689.94;10372549;28;20096;-69
2023/08/02 09:45:13;;;;;;;4.20;0.90;;;;;;;29.92;28.07;96659.72;10373146;28;20069;-68
2023/08/02 09:50:50;;;;;;;;;;;;;;;28.69;30.17;96649.66;10373454;28;20125;-67
2023/08/02 09:56:12;;;;;;;1.70;0.57;;;;;;;28.05;31.22;96629.38;10372110;28;19921;-68
2023/08/02 10:01:33;;;;;;;2.00;0.70;;;;;;;28.60;31.22;96611.09;10393215;28;20116;-68
2023/08/02 10:07:08;;;;;;;2.30;0.63;;;;;;;27.90;31.55;96620.38;10379738;28;20125;-68
2023/08/02 10:12:29;;;;;;;3.58;0.80;;;;;;;29.74;30.51;96616.34;10366870;28;20073;-68
2023/08/02 10:17:50;;;;;;;1.88;0.60;;;;;;;30.50;28.20;96601.31;10379159;28;20057;-68
2023/08/02 10:23:11;;;;;;;5.18;0.65;;;;;;;29.84;29.25;96596.66;10378895;28;20057;-68
2023/08/02 10:28:32;;;;;;;1.88;0.55;;;;;;;30.04;28.04;96620.59;10378503;28;20088;-68
2023/08/02 10:33:53;;;;;;;2.87;0.70;;;;;;;29.50;28.41;96591.81;10378607;28;20392;-68
2023/08/02 10:39:13;;;;;;;1.80;0.90;;;;;;;29.30;28.66;96590.13;10379090;28;20050;-68
2023/08/02 10:44:34;;;;;;;1.83;0.57;;;;;;;28.68;29.30;96601.59;10379091;28;20124;-68
2023/08/02 10:49:56;;;;;;;3.45;0.77;;;;;;;27.41;30.44;96586.13;10377760;28;20121;-67
2023/08/02 10:55:18;;;;;;;2.40;0.55;;;;;;;27.36;31.26;96585.47;10377644;28;20403;-68
2023/08/02 11:00:39;;;;;;;2.40;0.75;;;;;;;26.95;31.55;96585.41;10378673;28;20046;-68
2023/08/02 11:06:00;;;;;;;2.20;0.50;;;;;;;26.02;32.33;96575.19;10376923;28;20103;-68
2023/08/02 11:11:31;;;;;;;2.35;0.80;;;;;;;25.64;32.97;96572.00;10376697;28;20041;-68
2023/08/02 11:16:52;;;;;;;2.65;0.70;;;;;;;26.04;33.31;96566.56;10376659;28;20050;-67
2023/08/02 11:22:15;;;;;;;2.65;0.60;;;;;;;26.55;32.51;96560.25;10376676;28;20076;-68
2023/08/02 11:27:36;;;;;;;3.78;0.77;;;;;;;26.33;32.21;96550.47;10376357;28;20068;-68
2023/08/02 11:33:00;;;;;;;1.73;0.63;;;;;;;26.39;32.54;96541.13;10362781;28;20507;-67
2023/08/02 11:38:20;;;;;;;1.48;0.50;;;;;;;26.35;32.17;96546.91;10376144;28;20050;-67
2023/08/02 11:43:42;;;;;;;2.05;0.65;;;;;;;25.70;33.68;96536.97;10375669;28;20447;-67
2023/08/02 11:49:07;;;;;;;1.75;0.70;;;;;;;25.73;33.74;96529.78;10375729;28;20042;-68
2023/08/02 11:54:28;;;;;;;4.60;0.68;;;;;;;25.45;33.93;96518.63;10376490;28;20065;-68
2023/08/02 11:59:50;;;;;;;2.10;0.70;;;;;;;24.76;34.77;96520.66;10361700;28;20096;-68
2023/08/02 12:05:20;;;;;;;2.10;0.65;;;;;;;24.54;35.60;96515.81;10375213;28;20116;-68
2023/08/02 12:10:42;;;;;;;1.63;0.73;;;;;;;24.30;36.08;96489.56;10375063;28;20046;-67
2023/08/02 12:16:04;;;;;;;2.33;0.70;;;;;;;24.59;36.05;96473.00;10375065;28;20061;-68
2023/08/02 12:21:26;;;;;;;1.52;0.60;;;;;;;24.68;36.38;96492.19;10360485;28;20045;-67
2023/08/02 12:26:47;;;;;;;2.53;0.80;;;;;;;24.78;36.77;96489.25;10374683;28;20047;-68
2023/08/02 12:32:08;;;;;;;1.77;0.80;;;;;;;25.11;36.11;96489.72;10374309;28;20042;-67
2023/08/02 12:37:33;;;;;;;3.08;0.77;;;;;;;25.20;35.77;96516.03;10374271;28;20049;-67
2023/08/02 12:42:54;;;;;;;2.05;0.70;;;;;;;24.21;37.69;96483.19;10374157;28;20046;-67
2023/08/02 12:48:23;;;;;;;1.27;0.63;;;;;;;23.78;39.58;96471.34;10361300;28;20057;-67
2023/08/02 12:53:44;;;;;;;2.05;0.60;;;;;;;23.14;42.25;96482.88;10374956;28;20041;-67
2023/08/02 12:59:05;;;;;;;2.97;0.93;;;;;;;23.32;42.69;96495.66;10373553;28;20053;-67
2023/08/02 13:04:26;;;;;;;2.05;0.70;;;;;;;22.78;43.92;96477.22;10373454;28;20451;-68
2023/08/02 13:09:47;;;;;;;2.97;0.98;;;;;;;22.27;44.71;96446.63;10373571;28;20495;-68
2023/08/02 13:15:08;;;;;;;1.20;0.60;;;;;;;22.19;45.59;96434.53;10373173;28;20492;-67
2023/08/02 13:20:29;;;;;;;2.10;0.70;;;;;;;22.03;46.13;96432.38;10359617;28;20046;-67
2023/08/02 13:25:49;;;;;;;1.05;0.60;;;;;;;21.84;48.09;96413.88;10372905;28;20061;-67
2023/08/02 13:31:10;;;;;;;1.42;0.65;;;;;;;21.70;49.37;96417.38;10374485;28;20117;-67
2023/08/02 13:36:31;;;;;;;2.13;0.75;;;;;;;21.46;51.45;96405.94;10381820;28;20129;-67
2023/08/02 13:41:51;;;;;;;1.85;0.65;;;;;;;21.15;52.66;96437.00;10381811;28;20124;-67
2023/08/02 13:47:12;;;;;;;1.52;0.70;;;;;;;21.08;53.42;96435.53;10381338;28;20117;-68
2023/08/02 13:52:33;;;;;;;2.72;0.70;;;;;;;21.10;53.78;96419.22;10381034;28;20116;-67
2023/08/02 13:57:54;;;;;;;1.80;0.90;;;;;;;21.10;54.58;96405.03;10381203;28;20253;-67
2023/08/02 14:03:15;;;;;;;1.92;0.77;;;;;;;21.28;55.07;96401.59;10380796;28;20465;-67
2023/08/02 14:08:35;;;;;;;1.58;0.80;;;;;;;20.94;56.75;96384.38;10379657;28;20125;-67
2023/08/02 14:13:56;;;;;;;3.53;1.27;;;;;;;20.66;57.80;96380.00;10380216;28;20492;-67
2023/08/02 14:19:17;;;;;;;3.22;1.15;;;;;;;20.48;58.82;96374.91;10379331;28;20069;-68
2023/08/02 14:24:38;;;;;;;3.70;1.05;;;;;;;20.07;60.35;96382.34;10379170;28;20042;-67
2023/08/02 14:29:58;;;;;;;2.33;1.08;;;;;;;19.61;62.04;96357.13;10378593;28;20078;-67
2023/08/02 14:35:21;;;;;;;2.57;1.00;;;;;;;19.32;63.66;96353.25;10378704;28;20065;-67
2023/08/02 14:40:42;;;;;;;3.22;1.10;;;;;;;19.06;64.55;96360.03;10379323;28;20069;-67
2023/08/02 14:46:03;;;;;;;2.47;1.05;;;;;;;18.86;65.48;96363.31;10377562;28;20121;-67
2023/08/02 14:51:24;;;;;;;2.75;0.75;;;;;;;18.79;67.13;96349.78;10378822;28;20120;-67
2023/08/02 14:56:44;;;;;;;3.67;1.10;;;;;;;18.86;68.23;96348.47;10378934;28;20600;-67
2023/08/02 15:02:10;;;;;;;4.05;1.00;;;;;;;18.89;68.56;96318.81;10364355;28;20080;-67
2023/08/02 15:07:31;;;;;;;3.80;0.98;;;;;;;18.83;69.54;96315.94;10378070;28;20042;-67
2023/08/02 15:12:52;;;;;;;5.50;1.30;;;;;;;18.74;70.73;96317.22;10377430;28;20214;-67
2023/08/02 15:18:12;;;;;;;2.75;1.20;;;;;;;18.84;71.31;96300.38;10363118;28;20070;-67
2023/08/02 15:23:33;;;;;;;3.10;1.08;;;;;;;19.39;70.85;96293.22;10376818;28;20081;-67
2023/08/02 15:28:54;;;;;;;4.25;1.30;;;;;;;19.89;69.30;96291.59;10377262;28;20472;-66
2023/08/02 15:34:16;;;;;;;2.97;1.40;;;;;;;20.13;67.97;96282.53;10377284;28;20042;-67
2023/08/02 15:39:37;;;;;;;3.00;1.03;;;;;;;19.90;67.93;96276.00;10375982;28;20180;-67
2023/08/02 15:44:57;;;;;;;3.63;1.08;;;;;;;19.69;68.38;96290.00;10375943;28;20180;-67
2023/08/02 15:50:22;;;;;;;3.92;1.30;;;;;;;19.53;68.99;96281.31;10376753;28;20122;-67
2023/08/02 15:55:43;;;;;;;3.25;1.27;;;;;;;19.55;69.33;96286.28;10374463;28;20113;-67
2023/08/02 16:01:04;;;;;;;5.07;1.40;;;;;;;19.45;69.20;96295.41;10375469;28;20161;-67
2023/08/02 16:06:25;;;;;;;2.88;1.10;;;;;;;19.43;69.68;96286.91;10375709;28;20125;-67
2023/08/02 16:11:45;;;;;;;2.33;1.20;;;;;;;19.33;70.12;96278.31;10374764;28;20121;-67
2023/08/02 16:17:07;;;;;;;2.97;0.95;;;;;;;19.28;70.31;96285.31;10374693;28;20113;-68
2023/08/02 16:22:27;;;;;;;2.88;1.15;;;;;;;19.10;71.02;96274.50;10375593;28;20116;-68
2023/08/02 16:27:48;;;;;;;4.05;1.23;;;;;;;18.96;72.74;96272.25;10375372;28;20542;-67
2023/08/02 16:33:09;;;;;;;4.63;1.17;;;;;;;18.72;74.95;96271.97;10375118;28;20117;-67
2023/08/02 16:38:30;;;;;;;3.88;1.00;;;;;;;18.75;75.47;96274.13;10374296;28;20053;-68
2023/08/02 16:43:51;;;;;;;2.90;1.38;;;;;;;18.43;76.58;96280.06;10374794;28;20165;-68
2023/08/02 16:49:12;;;;;;;3.45;1.05;;;;;;;18.36;78.04;96267.25;10373836;28;20177;-67
2023/08/02 16:54:33;;;;;;;3.58;1.40;;;;;;;18.39;78.48;96254.56;10374513;28;20088;-68
2023/08/02 16:59:54;;;;;;;3.03;1.20;;;;;;;18.37;79.28;96259.47;10373611;28;20045;-67
2023/08/02 17:05:15;;;;;;;3.63;1.10;;;;;;;18.26;80.56;96252.97;10372981;28;20175;-68
2023/08/02 17:10:36;;;;;;;3.80;1.35;;;;;;;18.31;80.20;96251.63;10374110;28;20452;-66
2023/08/02 17:15:57;;;;;;;2.92;1.00;;;;;;;18.21;81.36;96257.84;10387172;28;20069;-67
2023/08/02 17:21:17;;;;;;;4.28;1.50;;;;;;;18.22;81.72;96231.03;10373807;28;20096;-67
2023/08/02 17:26:39;;;;;;;2.17;1.20;;;;;;;18.28;82.34;96231.13;10373825;28;20068;-67
2023/08/02 17:32:02;;;;;;;4.50;1.27;;;;;;;18.35;82.37;96234.03;10372479;28;20113;-66
2023/08/02 17:37:22;;;;;;;3.85;1.60;;;;;;;18.28;82.44;96227.59;10372553;28;20508;-67
2023/08/02 17:42:47;;;;;;;4.22;1.20;;;;;;;18.15;83.24;96206.25;10372647;28;20113;-67
2023/08/02 17:48:11;;;;;;;3.33;1.38;;;;;;;18.18;83.04;96185.09;10358915;28;20118;-67
2023/08/02 17:53:34;;;;;;;3.38;1.10;;;;;;;18.08;83.98;96196.25;10373292;28;20541;-67
2023/08/02 17:58:55;;;;;;;2.67;1.10;;;;;;;18.04;83.97;96191.25;10372124;28;20057;-66
2023/08/02 18:04:16;;;;;;;3.67;0.90;;;;;;;18.10;84.23;96185.00;10373235;28;20467;-66
2023/08/02 18:09:37;;;;;;;2.53;1.20;;;;;;;18.13;84.10;96189.25;10372721;28;20077;-67
2023/08/02 18:14:58;;;;;;;2.75;0.90;;;;;;;18.22;84.33;96197.16;10385544;28;20061;-66
2023/08/02 18:20:19;;;;;;;3.40;1.35;;;;;;;18.28;83.58;96177.47;10362828;28;20069;-67
2023/08/02 18:25:40;;;;;;;3.05;1.10;;;;;;;18.27;83.21;96195.09;10378192;28;20054;-67
2023/08/02 18:31:01;;;;;;;3.50;1.08;;;;;;;18.21;83.66;96200.66;10378859;28;20125;-67
2023/08/02 18:36:23;;;;;;;2.83;1.08;;;;;;;18.25;83.30;96189.44;10379506;28;20179;-68
2023/08/02 18:41:45;;;;;;;1.80;1.10;;;;;;;18.22;83.27;96168.19;10379425;28;20120;-67
2023/08/02 18:47:05;;;;;;;2.58;1.20;;;;;;;18.20;83.70;96159.69;10378059;28;20096;-67
2023/08/02 18:52:26;;;;;;;2.25;1.20;;;;;;;18.16;84.17;96156.84;10377927;28;20093;-67
2023/08/02 18:57:47;;;;;;;2.22;1.00;;;;;;;18.10;84.90;96168.75;10364102;28;20556;-67
2023/08/02 19:03:08;;;;;;;3.13;1.10;;;;;;;18.12;85.31;96193.47;10378504;28;20130;-68
2023/08/02 19:08:36;;;;;;;2.45;1.30;;;;;;;18.17;85.38;96189.31;10378367;28;20042;-67
2023/08/02 19:13:57;;;;;;;3.17;1.20;;;;;;;18.16;85.08;96160.38;10377048;28;20168;-66
2023/08/02 19:19:28;;;;;;;3.97;1.42;;;;;;;18.07;86.07;96172.97;10376984;28;20049;-66
2023/08/02 19:24:48;;;;;;;2.20;1.25;;;;;;;18.06;86.14;96153.88;10350478;28;20065;-67
2023/08/02 19:30:11;;;;;;;2.90;1.38;;;;;;;17.97;86.21;96158.72;10376036;28;20076;-66
2023/08/02 19:35:32;;;;;;;3.13;1.48;;;;;;;17.82;86.75;96142.97;10376441;28;20499;-66
2023/08/02 19:40:56;;;;;;;3.63;1.20;;;;;;;17.82;87.33;96140.16;10362365;28;20069;-67
2023/08/02 19:46:19;;;;;;;2.65;1.15;;;;;;;17.89;87.42;96133.91;10375927;28;20121;-67
2023/08/02 19:51:42;;;;;;;3.63;1.10;;;;;;;18.00;86.88;96143.94;10361885;28;20069;-67
2023/08/02 19:57:03;;;;;;;;;;;;;;;18.06;87.08;96140.47;10375591;28;20046;-67
2023/08/02 20:02:24;;;;;;;3.05;1.30;;;;;;;18.16;86.66;96154.00;10375364;28;19921;-67
2023/08/02 20:07:45;;;;;;;3.95;1.27;;;;;;;18.19;86.23;96141.34;10374907;28;20053;-67
2023/08/02 20:13:12;;;;;;;2.95;1.13;;;;;;;18.27;85.87;96142.16;10375010;28;20065;-67
2023/08/02 20:18:34;;;;;;;1.98;1.17;;;;;;;18.30;85.89;96123.13;10374758;28;20125;-68
2023/08/02 20:23:57;;;;;;;2.90;1.10;;;;;;;18.35;85.38;96118.22;10374585;28;20065;-67
2023/08/02 20:29:21;;;;;;;1.83;1.10;;;;;;;18.44;85.38;96128.94;10374247;28;20069;-66
2023/08/02 20:34:42;;;;;;;;;;;;;;;18.52;84.61;96123.34;10374647;28;20074;-67
2023/08/02 20:40:03;;;;;;;4.40;1.20;;;;;;;18.50;83.87;96154.41;10359670;28;19922;-67
2023/08/02 20:45:23;;;;;;;4.28;1.20;;;;;;;18.41;83.90;96138.78;10373742;28;20097;-67
2023/08/02 20:50:45;;;;;;;1.73;1.00;;;;;;;18.37;84.44;96150.03;10373626;28;20042;-68
2023/08/02 20:56:06;;;;;;;2.95;1.10;;;;;;;18.40;84.36;96174.06;10359731;28;20042;-67
2023/08/02 21:01:28;;;;;;;3.30;1.10;;;;;;;18.40;84.25;96188.19;10373396;28;20089;-67
2023/08/02 21:06:49;;;;;;;2.63;1.20;;;;;;;18.48;84.07;96204.53;10373413;28;20161;-67
2023/08/02 21:12:30;;;;;;;2.55;1.30;;;;;;;18.53;84.69;96251.22;10362038;28;20532;-67
2023/08/02 21:17:51;;;;;;;5.88;1.33;;;;;;;18.52;85.35;96289.34;10374043;28;20551;-68
2023/08/02 21:23:15;;;;;;;4.57;1.15;;;;;;;18.51;85.36;96293.56;10373773;28;20041;-67
2023/08/02 21:28:39;;;;;;;3.67;1.30;;;;;;;18.43;85.91;96305.50;10359979;28;20041;-66
2023/08/02 21:34:00;;;;;;;3.53;1.00;;;;;;;18.39;87.16;96319.53;10372814;28;20070;-66
2023/08/02 21:39:20;;;;;;;2.33;1.00;;;;;;;18.39;87.29;96294.13;10372648;28;20045;-66
2023/08/02 21:44:41;;;;;;;2.42;1.20;;;;;;;18.39;87.63;96268.69;10373695;28;20468;-66
2023/08/02 21:50:02;;;;;;;3.42;0.95;;;;;;;18.28;87.84;96210.66;10373180;28;20096;-69
2023/08/02 21:55:22;;;;;;;2.85;0.88;;;;;;;18.16;89.66;96253.56;10377497;28;20125;-68
2023/08/02 22:00:44;;;;;;;4.00;1.08;;;;;;;18.12;89.58;96225.25;10379996;28;20539;-66
2023/08/02 22:06:04;;;;;;;1.90;0.80;;;;;;;18.06;91.02;96244.94;10379582;28;20085;-66
2023/08/02 22:11:25;;;;;;;2.35;0.80;;;;;;;18.13;90.81;96263.38;10379794;28;20117;-66
2023/08/02 22:16:45;;;;;;;2.85;0.95;;;;;;;18.16;90.88;96273.31;10379475;28;20114;-66
2023/08/02 22:22:06;;;;;;;3.70;1.20;;;;;;;18.19;91.20;96297.38;10379140;28;20074;-66
2023/08/02 22:27:27;;;;;;;3.22;1.50;;;;;;;18.23;91.64;96339.06;10378982;28;20552;-66
2023/08/02 22:32:49;;;;;;;1.90;1.20;;;;;;;18.27;91.18;96327.84;10379855;28;20121;-66
2023/08/02 22:38:09;;;;;;;2.45;0.90;;;;;;;18.28;91.42;96340.56;10378514;28;20544;-67
2023/08/02 22:43:33;;;;;;;3.17;1.20;;;;;;;18.31;90.91;96356.13;10378354;28;20117;-66
2023/08/02 22:48:53;;;;;;;3.10;1.17;;;;;;;18.27;90.79;96348.31;10379153;28;20591;-67
2023/08/02 22:54:34;;;;;;;3.08;1.30;;;;;;;18.18;90.97;96327.00;10378024;28;20117;-67
2023/08/02 22:59:55;;;;;;;1.50;0.95;;;;;;;18.11;91.11;96305.00;10377762;28;20126;-67
2023/08/02 23:05:19;;;;;;;3.20;1.08;;;;;;;18.06;91.40;96283.75;10377827;28;20049;-67
2023/08/02 23:10:40;;;;;;;2.50;1.30;;;;;;;17.99;91.73;96240.59;10378297;28;20432;-68
2023/08/02 23:16:01;;;;;;;1.70;0.98;;;;;;;18.01;93.08;96260.38;10377239;28;20591;-67
2023/08/02 23:21:24;;;;;;;2.40;1.10;;;;;;;18.05;92.91;96234.31;10376755;28;20122;-67
2023/08/02 23:26:45;;;;;;;2.07;1.10;;;;;;;18.11;93.31;96265.47;10376818;28;20072;-67
2023/08/02 23:32:06;;;;;;;4.07;1.00;;;;;;;18.12;93.29;96281.00;10376298;28;20068;-67
2023/08/02 23:37:26;;;;;;;2.08;0.98;;;;;;;18.08;93.24;96306.38;10376221;28;20117;-67
2023/08/02 23:42:47;;;;;;;1.45;0.70;;;;;;;17.96;93.46;96312.53;10375984;28;20125;-67
2023/08/02 23:48:10;;;;;;;2.30;0.80;;;;;;;17.81;92.71;96328.53;10376834;28;20141;-67
2023/08/02 23:53:31;;;;;;;;;;;;;;;17.69;93.17;96354.44;10377387;28;20126;-67
2023/08/02 23:58:51;;;;;;;2.63;0.95;;;;;;;17.70;92.80;96355.16;10375508;28;20002;-67
